createdAt,value
2018-03-19T00:00:37.486Z,83.30
2018-03-19T00:03:06.986Z,83.41
2018-03-19T00:05:36.772Z,83.81
2018-03-19T00:08:06.251Z,83.81
2018-03-19T00:10:35.571Z,83.64
2018-03-19T00:13:05.448Z,83.63
2018-03-19T00:15:34.898Z,83.67
2018-03-19T00:18:04.372Z,83.47
2018-03-19T00:20:34.228Z,83.35
2018-03-19T00:23:03.752Z,83.57
2018-03-19T00:25:33.320Z,83.41
2018-03-19T00:28:02.810Z,83.30
2018-03-19T00:30:32.698Z,83.49
2018-03-19T00:33:02.206Z,83.38
2018-03-19T00:39:07.350Z,83.54
2018-03-19T00:41:36.806Z,83.68
2018-03-19T00:44:06.656Z,83.86
2018-03-19T00:46:36.129Z,83.99
2018-03-19T00:49:05.989Z,83.97
2018-03-19T00:51:35.495Z,83.84
2018-03-19T00:54:04.957Z,83.84
2018-03-19T00:56:34.590Z,83.60
2018-03-19T00:59:04.044Z,82.75
2018-03-19T01:01:33.496Z,82.54
2018-03-19T01:04:02.957Z,82.88
2018-03-19T01:06:32.809Z,82.86
2018-03-19T01:09:02.264Z,82.16
2018-03-19T01:11:31.914Z,82.73
2018-03-19T01:14:01.371Z,82.68
2018-03-19T01:16:30.862Z,82.66
2018-03-19T01:19:00.487Z,82.39
2018-03-19T01:21:29.956Z,82.61
2018-03-19T01:23:59.440Z,82.77
2018-03-19T01:26:28.888Z,83.02
2018-03-19T01:28:58.351Z,83.10
2018-03-19T01:31:27.818Z,82.89
2018-03-19T01:33:57.275Z,83.22
2018-03-19T01:36:26.747Z,82.93
2018-03-19T01:38:56.596Z,83.30
2018-03-19T01:41:26.054Z,83.38
2018-03-19T01:43:55.911Z,83.40
2018-03-19T01:46:25.600Z,83.52
2018-03-19T01:48:55.053Z,83.25
2018-03-19T01:51:24.502Z,83.74
2018-03-19T02:00:41.694Z,83.86
2018-03-19T02:03:11.130Z,83.92
2018-03-19T02:05:40.587Z,83.61
2018-03-19T02:08:10.044Z,83.81
2018-03-19T02:10:39.508Z,83.86
2018-03-19T02:13:08.973Z,83.94
2018-03-19T02:15:39.036Z,83.80
2018-03-19T02:18:08.479Z,83.94
2018-03-19T02:20:37.928Z,84.27
2018-03-19T02:23:07.405Z,84.19
2018-03-19T02:25:37.256Z,84.23
2018-03-19T02:28:06.712Z,83.90
2018-03-19T02:30:36.204Z,84.24
2018-03-19T02:33:05.660Z,84.05
2018-03-19T02:35:35.193Z,84.31
2018-03-19T02:38:04.652Z,84.36
2018-03-19T02:40:34.506Z,84.41
2018-03-19T02:43:03.962Z,84.29
2018-03-19T02:45:33.820Z,84.11
2018-03-19T02:48:03.288Z,84.41
2018-03-19T02:50:33.162Z,84.42
2018-03-19T02:53:02.626Z,84.59
2018-03-19T02:55:32.271Z,84.25
2018-03-19T02:58:01.759Z,84.40
2018-03-19T03:00:31.220Z,84.22
2018-03-19T03:03:00.844Z,84.27
2018-03-19T03:05:30.314Z,83.68
2018-03-19T03:07:59.771Z,83.94
2018-03-19T03:10:29.215Z,84.11
2018-03-19T03:12:58.685Z,83.64
2018-03-19T03:15:28.142Z,83.82
2018-03-19T03:17:57.992Z,83.76
2018-03-19T03:20:27.450Z,83.71
2018-03-19T03:22:57.208Z,83.86
2018-03-19T03:25:27.233Z,83.78
2018-03-19T03:27:56.691Z,83.90
2018-03-19T03:30:26.152Z,83.76
2018-03-19T03:32:55.612Z,84.01
2018-03-19T03:35:25.461Z,84.15
2018-03-19T03:37:54.910Z,84.29
2018-03-19T03:40:24.409Z,84.18
2018-03-19T03:42:53.860Z,84.69
2018-03-19T03:45:23.319Z,84.53
2018-03-19T03:47:52.784Z,85.04
2018-03-19T03:50:22.243Z,85.07
2018-03-19T03:52:51.894Z,85.39
2018-03-19T03:55:21.351Z,85.50
2018-03-19T03:57:50.802Z,85.81
2018-03-19T04:00:20.268Z,86.04
2018-03-19T04:02:50.145Z,86.13
2018-03-19T04:05:19.598Z,86.24
2018-03-19T04:07:49.450Z,86.27
2018-03-19T04:10:18.914Z,86.31
2018-03-19T04:12:48.760Z,86.26
2018-03-19T04:15:18.212Z,86.54
2018-03-19T04:17:47.666Z,86.54
2018-03-19T04:20:17.133Z,86.72
2018-03-19T04:22:47.005Z,86.80
2018-03-19T04:25:16.460Z,86.99
2018-03-19T04:27:45.922Z,86.75
2018-03-19T04:30:15.386Z,86.84
2018-03-19T04:32:44.834Z,87.00
2018-03-19T04:35:14.285Z,86.90
2018-03-19T04:37:44.180Z,86.97
2018-03-19T04:40:14.040Z,87.14
2018-03-19T04:42:43.494Z,87.22
2018-03-19T04:45:13.352Z,87.05
2018-03-19T04:47:42.814Z,87.18
2018-03-19T04:50:11.998Z,87.15
2018-03-19T04:52:41.471Z,87.28
2018-03-19T04:55:10.919Z,87.24
2018-03-19T04:57:40.763Z,87.15
2018-03-19T05:00:10.221Z,87.23
2018-03-19T05:02:39.683Z,87.29
2018-03-19T05:05:09.147Z,87.33
2018-03-19T05:07:39.019Z,87.42
2018-03-19T05:10:08.472Z,86.99
2018-03-19T05:12:37.920Z,86.97
2018-03-19T05:15:07.594Z,87.01
2018-03-19T05:17:37.118Z,86.97
2018-03-19T05:20:06.788Z,86.99
2018-03-19T05:22:36.266Z,86.92
2018-03-19T05:25:05.703Z,86.77
2018-03-19T05:27:35.541Z,86.66
2018-03-19T05:30:04.472Z,86.55
2018-03-19T05:32:33.941Z,86.77
2018-03-19T05:35:03.385Z,86.84
2018-03-19T05:37:32.866Z,86.88
2018-03-19T05:40:02.325Z,86.92
2018-03-19T05:42:31.781Z,86.81
2018-03-19T05:45:01.247Z,86.60
2018-03-19T05:47:31.102Z,86.53
2018-03-19T05:50:00.565Z,86.59
2018-03-19T05:52:30.636Z,86.73
2018-03-19T05:55:00.110Z,86.45
2018-03-19T05:57:29.640Z,86.43
2018-03-19T05:59:59.225Z,86.22
2018-03-19T06:02:28.672Z,86.12
2018-03-19T06:04:58.147Z,85.97
2018-03-19T06:07:27.615Z,85.97
2018-03-19T06:09:57.470Z,85.74
2018-03-19T06:12:26.938Z,85.52
2018-03-19T06:14:56.839Z,85.49
2018-03-19T06:17:26.321Z,85.19
2018-03-19T06:19:55.784Z,84.74
2018-03-19T06:22:25.251Z,84.35
2018-03-19T06:24:54.696Z,84.25
2018-03-19T06:27:24.149Z,84.53
2018-03-19T06:29:53.610Z,84.54
2018-03-19T06:32:23.093Z,84.65
2018-03-19T06:34:52.575Z,84.66
2018-03-19T06:37:22.807Z,84.59
2018-03-19T06:39:52.653Z,84.43
2018-03-19T06:42:22.147Z,84.24
2018-03-19T06:44:51.595Z,84.28
2018-03-19T06:47:21.053Z,84.28
2018-03-19T06:49:50.560Z,83.96
2018-03-19T06:52:20.167Z,84.04
2018-03-19T06:54:49.623Z,84.04
2018-03-19T06:57:19.367Z,83.55
2018-03-19T06:59:49.232Z,83.16
2018-03-19T07:02:18.696Z,83.74
2018-03-19T07:04:48.137Z,83.30
2018-03-19T07:07:18.141Z,83.83
2018-03-19T07:09:47.599Z,83.49
2018-03-19T07:12:17.487Z,83.40
2018-03-19T07:14:46.957Z,83.84
2018-03-19T07:17:16.452Z,83.32
2018-03-19T07:19:46.086Z,83.99
2018-03-19T07:22:15.357Z,83.86
2018-03-19T07:24:44.817Z,83.61
2018-03-19T07:27:14.287Z,83.02
2018-03-19T07:29:43.743Z,83.33
2018-03-19T07:32:13.209Z,83.76
2018-03-19T07:34:42.752Z,82.86
2018-03-19T07:37:12.335Z,82.44
2018-03-19T07:39:41.800Z,82.92
2018-03-19T07:42:11.279Z,82.00
2018-03-19T07:44:41.136Z,81.38
2018-03-19T07:47:10.600Z,82.17
2018-03-19T07:49:40.257Z,81.03
2018-03-19T07:52:09.719Z,81.63
2018-03-19T07:54:39.575Z,80.99
2018-03-19T07:57:09.051Z,80.90
2018-03-19T07:59:38.515Z,81.33
2018-03-19T08:02:07.981Z,81.56
2018-03-19T08:04:37.436Z,81.63
2018-03-19T08:07:07.294Z,80.79
2018-03-19T08:09:36.752Z,81.72
2018-03-19T08:12:06.639Z,81.82
2018-03-19T08:14:37.085Z,81.63
2018-03-19T08:17:06.539Z,81.23
2018-03-19T08:19:35.994Z,81.54
2018-03-19T08:22:05.491Z,81.42
2018-03-19T08:24:35.007Z,81.45
2018-03-19T08:27:08.804Z,80.03
2018-03-19T08:29:38.814Z,80.05
2018-03-19T08:32:08.457Z,80.31
2018-03-19T08:34:38.313Z,80.67
2018-03-19T08:37:07.835Z,80.17
2018-03-19T08:39:37.307Z,78.68
2018-03-19T08:42:06.770Z,78.62
2018-03-19T08:44:36.223Z,78.52
2018-03-19T08:47:05.703Z,78.41
2018-03-19T08:49:35.249Z,78.52
2018-03-19T08:52:04.715Z,78.45
2018-03-19T08:54:34.414Z,78.46
2018-03-19T08:57:04.279Z,77.72
2018-03-19T08:59:33.736Z,78.10
2018-03-19T09:02:03.844Z,77.64
2018-03-19T09:04:33.703Z,78.40
2018-03-19T09:07:03.161Z,77.50
2018-03-19T09:09:33.027Z,77.34
2018-03-19T09:12:02.492Z,76.83
2018-03-19T09:14:32.550Z,76.88
2018-03-19T09:17:02.334Z,76.83
2018-03-19T09:19:32.375Z,76.94
2018-03-19T09:22:01.849Z,76.41
2018-03-19T09:24:31.524Z,75.71
2018-03-19T09:27:01.007Z,75.25
2018-03-19T09:29:30.277Z,75.12
2018-03-19T09:31:59.567Z,75.26
2018-03-19T09:34:29.088Z,75.96
2018-03-19T09:36:58.745Z,75.00
2018-03-19T09:39:28.212Z,75.35
2018-03-19T09:41:57.107Z,74.82
2018-03-19T09:44:26.655Z,75.21
2018-03-19T09:46:56.129Z,75.67
2018-03-19T09:49:25.594Z,75.82
2018-03-19T09:51:55.443Z,75.50
2018-03-19T09:54:24.968Z,74.97
2018-03-19T09:56:54.234Z,75.98
2018-03-19T09:59:23.696Z,75.58
2018-03-19T10:01:54.861Z,75.14
2018-03-19T10:04:24.333Z,75.63
2018-03-19T10:06:53.787Z,74.58
2018-03-19T10:09:23.462Z,74.14
2018-03-19T10:11:53.314Z,74.73
2018-03-19T10:14:22.763Z,73.71
2018-03-19T10:16:52.244Z,74.01
2018-03-19T10:19:21.702Z,74.10
2018-03-19T10:21:51.644Z,74.27
2018-03-19T10:24:21.105Z,74.42
2018-03-19T10:26:50.564Z,74.29
2018-03-19T10:29:20.020Z,73.72
2018-03-19T10:31:49.561Z,74.56
2018-03-19T10:34:19.021Z,75.02
2018-03-19T10:36:48.489Z,74.57
2018-03-19T10:39:18.260Z,74.34
2018-03-19T10:41:48.116Z,73.99
2018-03-19T10:44:17.603Z,73.83
2018-03-19T10:46:47.089Z,73.66
2018-03-19T10:49:16.996Z,73.32
2018-03-19T10:51:46.611Z,73.13
2018-03-19T10:54:16.464Z,73.07
2018-03-19T10:56:45.936Z,73.72
2018-03-19T10:59:15.435Z,74.27
2018-03-19T11:01:46.023Z,73.83
2018-03-19T11:04:15.676Z,72.87
2018-03-19T11:06:45.515Z,72.93
2018-03-19T11:09:20.274Z,72.81
2018-03-19T11:11:49.793Z,72.89
2018-03-19T11:14:19.385Z,72.84
2018-03-19T11:16:48.841Z,72.13
2018-03-19T11:19:18.295Z,72.35
2018-03-19T11:21:47.756Z,72.48
2018-03-19T11:24:17.238Z,72.11
2018-03-19T11:26:47.356Z,72.13
2018-03-19T11:29:17.226Z,71.45
2018-03-19T11:31:46.701Z,70.93
2018-03-19T11:34:16.166Z,72.46
2018-03-19T11:36:45.624Z,72.99
2018-03-19T11:39:15.077Z,71.58
2018-03-19T11:41:44.524Z,72.24
2018-03-19T11:44:14.005Z,71.97
2018-03-19T11:46:43.868Z,71.31
2018-03-19T11:49:13.326Z,71.91
2018-03-19T11:51:43.184Z,71.75
2018-03-19T11:54:12.640Z,72.84
2018-03-19T11:56:42.174Z,72.85
2018-03-19T11:59:11.648Z,72.50
2018-03-19T12:01:41.498Z,72.09
2018-03-19T12:04:10.960Z,72.04
2018-03-19T12:06:40.824Z,72.58
2018-03-19T12:09:10.279Z,72.80
2018-03-19T12:11:40.342Z,72.43
2018-03-19T12:14:09.801Z,71.95
2018-03-19T12:16:39.659Z,73.12
2018-03-19T12:19:08.936Z,73.30
2018-03-19T12:21:38.116Z,73.32
2018-03-19T12:24:07.976Z,73.51
2018-03-19T12:26:37.449Z,74.06
2018-03-19T12:29:07.239Z,74.06
2018-03-19T12:31:37.880Z,73.19
2018-03-19T12:34:07.750Z,74.04
2018-03-19T12:36:37.302Z,73.76
2018-03-19T12:39:06.842Z,72.94
2018-03-19T12:41:36.299Z,73.57
2018-03-19T12:44:05.758Z,72.31
2018-03-19T12:46:35.220Z,72.87
2018-03-19T12:49:05.084Z,72.33
2018-03-19T12:51:35.322Z,73.25
2018-03-19T12:54:04.802Z,73.28
2018-03-19T12:56:34.467Z,72.41
2018-03-19T12:59:04.324Z,72.70
2018-03-19T13:01:33.791Z,72.88
2018-03-19T13:04:03.658Z,72.60
2018-03-19T13:06:33.122Z,72.76
2018-03-19T13:09:02.976Z,72.36
2018-03-19T13:11:32.424Z,72.49
2018-03-19T13:14:02.496Z,73.07
2018-03-19T13:16:31.950Z,73.42
2018-03-19T13:19:01.786Z,73.21
2018-03-19T13:21:31.504Z,72.45
2018-03-19T13:24:00.969Z,72.26
2018-03-19T13:26:30.434Z,71.73
2018-03-19T13:28:59.898Z,71.48
2018-03-19T13:31:29.431Z,72.00
2018-03-19T13:33:58.888Z,72.12
2018-03-19T13:36:28.350Z,71.21
2018-03-19T13:38:57.820Z,71.97
2018-03-19T13:41:27.664Z,71.10
2018-03-19T13:43:57.140Z,71.65
2018-03-19T13:46:26.600Z,71.97
2018-03-19T13:48:56.058Z,71.82
2018-03-19T13:51:25.534Z,72.16
2018-03-19T13:53:54.974Z,72.56
2018-03-19T13:56:24.434Z,71.79
2018-03-19T13:58:54.297Z,71.85
2018-03-19T14:01:23.758Z,72.33
2018-03-19T14:03:53.598Z,71.99
2018-03-19T14:06:23.062Z,72.08
2018-03-19T14:08:52.712Z,71.55
2018-03-19T14:11:22.230Z,71.18
2018-03-19T14:13:51.836Z,70.70
2018-03-19T14:16:21.298Z,70.45
2018-03-19T14:18:51.014Z,71.44
2018-03-19T14:21:20.472Z,70.78
2018-03-19T14:23:49.924Z,71.96
2018-03-19T14:26:19.776Z,71.78
2018-03-19T14:28:49.276Z,71.66
2018-03-19T14:31:18.886Z,71.47
2018-03-19T14:33:48.665Z,71.28
2018-03-19T14:36:18.543Z,71.03
2018-03-19T14:38:48.188Z,70.39
2018-03-19T14:41:18.058Z,70.69
2018-03-19T14:43:47.512Z,70.44
2018-03-19T14:46:17.420Z,71.15
2018-03-19T14:48:47.016Z,70.78
2018-03-19T14:51:15.995Z,71.41
2018-03-19T14:53:45.973Z,71.85
2018-03-19T14:56:15.438Z,71.57
2018-03-19T14:58:44.603Z,71.40
2018-03-19T15:01:14.080Z,71.06
2018-03-19T15:03:44.128Z,72.28
2018-03-19T15:06:13.587Z,72.19
2018-03-19T15:08:43.244Z,70.80
2018-03-19T15:11:12.726Z,72.17
2018-03-19T15:13:42.174Z,71.55
2018-03-19T15:16:11.848Z,70.85
2018-03-19T15:18:41.312Z,71.05
2018-03-19T15:21:11.454Z,70.83
2018-03-19T15:23:40.939Z,69.55
2018-03-19T15:26:10.812Z,70.37
2018-03-19T15:28:40.269Z,70.44
2018-03-19T15:31:09.724Z,70.44
2018-03-19T15:33:38.890Z,70.73
2018-03-19T15:36:08.358Z,71.14
2018-03-19T15:38:38.249Z,71.29
2018-03-19T15:41:07.716Z,70.74
2018-03-19T15:43:37.212Z,70.91
2018-03-19T15:46:06.368Z,71.48
2018-03-19T15:48:35.828Z,71.52
2018-03-19T15:51:05.282Z,70.55
2018-03-19T15:53:35.143Z,70.15
2018-03-19T15:56:04.383Z,70.80
2018-03-19T15:58:33.554Z,70.64
2018-03-19T16:01:03.007Z,71.14
2018-03-19T16:03:32.878Z,70.99
2018-03-19T16:06:02.327Z,71.03
2018-03-19T16:08:32.171Z,71.56
2018-03-19T16:11:01.496Z,71.43
2018-03-19T16:13:30.946Z,71.10
2018-03-19T16:16:00.810Z,70.69
2018-03-19T16:18:30.277Z,70.73
2018-03-19T16:20:59.791Z,71.82
2018-03-19T16:23:29.048Z,72.30
2018-03-19T16:25:58.509Z,71.10
2018-03-19T16:28:27.988Z,71.82
2018-03-19T16:30:57.453Z,72.33
2018-03-19T16:33:26.905Z,72.04
2018-03-19T16:35:56.401Z,71.34
2018-03-19T16:38:26.014Z,72.10
2018-03-19T16:40:55.476Z,72.37
2018-03-19T16:43:24.937Z,72.71
2018-03-19T16:45:54.431Z,72.34
2018-03-19T16:48:23.894Z,72.13
2018-03-19T16:50:53.349Z,72.24
2018-03-19T16:53:22.798Z,73.15
2018-03-19T16:55:52.101Z,72.43
2018-03-19T16:58:21.565Z,72.25
2018-03-19T17:00:51.119Z,72.85
2018-03-19T17:03:20.586Z,74.35
2018-03-19T17:05:50.042Z,73.76
2018-03-19T17:08:19.907Z,73.96
2018-03-19T17:10:49.355Z,74.79
2018-03-19T17:13:19.228Z,74.79
2018-03-19T17:15:48.690Z,74.79
2018-03-19T17:18:18.175Z,74.72
2018-03-19T17:20:47.849Z,75.19
2018-03-19T17:23:17.314Z,75.30
2018-03-19T17:25:47.355Z,75.12
2018-03-19T17:28:16.923Z,74.95
2018-03-19T17:30:46.785Z,75.11
2018-03-19T17:33:16.246Z,74.56
2018-03-19T17:35:46.113Z,74.50
2018-03-19T17:38:15.592Z,74.85
2018-03-19T17:40:45.069Z,75.36
2018-03-19T17:43:14.935Z,75.12
2018-03-19T17:45:44.399Z,75.29
2018-03-19T17:48:13.899Z,74.46
2018-03-19T17:50:43.361Z,74.93
2018-03-19T17:53:12.826Z,74.63
2018-03-19T17:55:42.319Z,74.29
2018-03-19T17:58:11.779Z,74.88
2018-03-19T18:00:41.245Z,74.86
2018-03-19T18:03:10.734Z,74.56
2018-03-19T18:05:40.183Z,75.25
2018-03-19T18:08:09.660Z,75.21
2018-03-19T18:10:39.355Z,75.15
2018-03-19T18:13:09.148Z,75.37
2018-03-19T18:15:39.032Z,75.82
2018-03-19T18:18:08.499Z,75.76
2018-03-19T18:20:38.151Z,75.26
2018-03-19T18:23:07.624Z,75.04
2018-03-19T18:25:37.084Z,75.42
2018-03-19T18:28:06.939Z,75.21
2018-03-19T18:30:36.401Z,75.08
2018-03-19T18:33:06.063Z,75.86
2018-03-19T18:35:35.578Z,75.97
2018-03-19T18:38:05.073Z,75.83
2018-03-19T18:40:34.527Z,75.76
2018-03-19T18:43:04.583Z,75.57
2018-03-19T18:45:34.075Z,75.87
2018-03-19T18:48:03.550Z,76.22
2018-03-19T18:50:33.420Z,75.88
2018-03-19T18:53:02.873Z,76.46
2018-03-19T18:55:32.819Z,76.37
2018-03-19T18:58:02.281Z,75.93
2018-03-19T19:00:31.739Z,75.76
2018-03-19T19:03:01.209Z,76.03
2018-03-19T19:05:31.065Z,76.18
2018-03-19T19:08:00.571Z,76.06
2018-03-19T19:10:30.574Z,76.20
2018-03-19T19:13:00.057Z,76.41
2018-03-19T19:15:29.511Z,76.35
2018-03-19T19:17:58.981Z,76.66
2018-03-19T19:20:36.084Z,76.58
2018-03-19T19:23:06.379Z,75.85
2018-03-19T19:25:42.071Z,75.63
2018-03-19T19:28:18.510Z,76.01
2018-03-19T19:30:49.547Z,75.57
2018-03-19T19:33:26.326Z,76.26
2018-03-19T19:35:59.523Z,75.94
2018-03-19T19:38:35.824Z,76.75
2018-03-19T19:41:05.636Z,76.40
2018-03-19T19:43:35.093Z,76.86
2018-03-19T19:46:04.550Z,76.98
2018-03-19T19:48:34.106Z,77.23
2018-03-19T19:51:03.478Z,77.70
2018-03-19T19:53:33.341Z,77.84
2018-03-19T19:56:02.816Z,77.55
2018-03-19T19:58:32.279Z,77.67
2018-03-19T20:01:01.749Z,78.23
2018-03-19T20:03:31.227Z,78.04
2018-03-19T20:06:01.090Z,78.18
2018-03-19T20:08:30.558Z,78.56
2018-03-19T20:11:00.007Z,78.72
2018-03-19T20:13:29.459Z,78.67
2018-03-19T20:15:58.938Z,79.10
2018-03-19T20:18:28.395Z,79.35
2018-03-19T20:20:57.901Z,78.99
2018-03-19T20:23:27.357Z,79.18
2018-03-19T20:25:57.220Z,78.83
2018-03-19T20:28:26.879Z,78.99
2018-03-19T20:30:56.325Z,79.51
2018-03-19T20:33:25.845Z,79.59
2018-03-19T20:35:55.505Z,79.72
2018-03-19T20:38:25.369Z,79.48
2018-03-19T20:40:54.819Z,79.48
2018-03-19T20:43:24.671Z,79.61
2018-03-19T20:45:54.145Z,79.60
2018-03-19T20:48:23.999Z,79.68
2018-03-19T20:50:53.451Z,79.45
2018-03-19T20:53:23.311Z,79.51
2018-03-19T20:55:52.761Z,79.03
2018-03-19T20:58:22.212Z,79.38
2018-03-19T21:00:51.677Z,79.40
2018-03-19T21:03:21.400Z,79.09
2018-03-19T21:05:51.276Z,78.75
2018-03-19T21:08:20.731Z,79.12
2018-03-19T21:10:50.189Z,78.73
2018-03-19T21:13:19.676Z,78.60
2018-03-19T21:15:49.143Z,78.99
2018-03-19T21:18:19.207Z,78.34
2018-03-19T21:20:48.659Z,78.62
2018-03-19T21:23:18.511Z,78.27
2018-03-19T21:25:47.993Z,77.81
2018-03-19T21:28:17.456Z,77.69
2018-03-19T21:30:46.924Z,77.68
2018-03-19T21:33:16.417Z,78.12
2018-03-19T21:35:45.872Z,78.13
2018-03-19T21:38:15.346Z,77.37
2018-03-19T21:40:44.815Z,77.51
2018-03-19T21:43:14.283Z,77.63
2018-03-19T21:45:43.751Z,77.10
2018-03-19T21:48:13.530Z,77.58
2018-03-19T21:50:43.379Z,76.83
2018-03-19T21:53:12.848Z,76.13
2018-03-19T21:55:42.715Z,76.13
2018-03-19T21:58:12.164Z,75.90
2018-03-19T22:00:42.030Z,77.07
2018-03-19T22:03:11.479Z,76.05
2018-03-19T22:05:41.344Z,75.82
2018-03-19T22:08:10.648Z,75.79
2018-03-19T22:10:40.129Z,74.87
2018-03-19T22:13:09.804Z,75.44
2018-03-19T22:15:39.685Z,75.79
2018-03-19T22:18:09.182Z,75.52
2018-03-19T22:20:39.206Z,75.52
2018-03-19T22:23:08.720Z,74.87
2018-03-19T22:25:38.328Z,75.45
2018-03-19T22:28:07.829Z,75.47
2018-03-19T22:30:37.286Z,75.29
2018-03-19T22:33:06.735Z,74.90
2018-03-19T22:35:36.204Z,75.42
2018-03-19T22:38:05.330Z,75.37
2018-03-19T22:40:34.785Z,75.83
2018-03-19T22:43:04.865Z,75.00
2018-03-19T22:45:34.523Z,74.81
2018-03-19T22:48:04.011Z,74.55
2018-03-19T22:50:33.861Z,74.92
2018-03-19T22:53:04.681Z,74.43
2018-03-19T22:55:34.146Z,74.79
2018-03-19T22:58:03.616Z,75.12
2018-03-19T23:00:33.102Z,75.01
2018-03-19T23:03:02.581Z,74.86
2018-03-19T23:05:32.442Z,74.89
2018-03-19T23:08:01.901Z,74.91
2018-03-19T23:10:32.018Z,74.59
2018-03-19T23:13:01.921Z,74.81
2018-03-19T23:15:31.582Z,74.95
2018-03-19T23:18:01.094Z,75.56
2018-03-19T23:20:30.555Z,75.77
2018-03-19T23:23:00.480Z,75.19
2018-03-19T23:25:30.130Z,75.68
2018-03-19T23:27:59.588Z,76.17
2018-03-19T23:30:29.460Z,74.41
2018-03-19T23:32:58.939Z,75.11
2018-03-19T23:35:28.460Z,75.75
2018-03-19T23:37:57.924Z,75.87
2018-03-19T23:40:27.830Z,75.27
2018-03-19T23:42:57.718Z,75.65
2018-03-19T23:45:27.286Z,75.33
2018-03-19T23:47:56.818Z,75.62
2018-03-19T23:50:26.274Z,76.23
2018-03-19T23:52:55.753Z,75.39
2018-03-19T23:55:25.214Z,75.62
2018-03-19T23:57:54.692Z,75.31
